sensor_id;sensor_type;location;lat;lon;timestamp;pressure;altitude;pressure_sealevel;temperature;humidity
46448;BME280;32145;50.390;30.778;2024-01-15T00:00:14;98404.75;;;-2.29;83.01
46448;BME280;32145;50.390;30.778;2024-01-15T00:03:09;98405.38;;;-2.27;83.24
46448;BME280;32145;50.390;30.778;2024-01-15T00:06:03;98400.72;;;-2.25;82.83
46448;BME280;32145;50.390;30.778;2024-01-15T00:08:58;98403.00;;;-2.22;82.94
46448;BME280;32145;50.390;30.778;2024-01-15T00:11:52;98403.00;;;-2.22;82.97
46448;BME280;32145;50.390;30.778;2024-01-15T00:14:48;98405.47;;;-2.20;82.76
46448;BME280;32145;50.390;30.778;2024-01-15T00:17:46;98396.50;;;-2.19;82.67
46448;BME280;32145;50.390;30.778;2024-01-15T00:20:40;98389.38;;;-2.18;82.79
46448;BME280;32145;50.390;30.778;2024-01-15T00:23:34;98388.34;;;-2.17;82.88
46448;BME280;32145;50.390;30.778;2024-01-15T00:26:28;98395.28;;;-2.16;82.63
46448;BME280;32145;50.390;30.778;2024-01-15T00:29:23;98395.09;;;-2.15;82.79
46448;BME280;32145;50.390;30.778;2024-01-15T00:32:19;98394.91;;;-2.13;82.89
46448;BME280;32145;50.390;30.778;2024-01-15T00:35:17;98389.63;;;-2.13;82.35
46448;BME280;32145;50.390;30.778;2024-01-15T00:38:13;98392.88;;;-2.11;82.49
46448;BME280;32145;50.390;30.778;2024-01-15T00:41:09;98398.19;;;-2.11;82.66
46448;BME280;32145;50.390;30.778;2024-01-15T00:44:05;98398.19;;;-2.11;82.62
46448;BME280;32145;50.390;30.778;2024-01-15T00:47:00;98393.72;;;-2.11;82.32
46448;BME280;32145;50.390;30.778;2024-01-15T00:49:54;98392.88;;;-2.11;82.44
46448;BME280;32145;50.390;30.778;2024-01-15T00:52:49;98393.72;;;-2.11;82.77
46448;BME280;32145;50.390;30.778;2024-01-15T00:55:44;98393.28;;;-2.14;82.58
46448;BME280;32145;50.390;30.778;2024-01-15T00:58:38;98394.66;;;-2.18;83.19
46448;BME280;32145;50.390;30.778;2024-01-15T01:01:32;98398.78;;;-2.16;83.53
46448;BME280;32145;50.390;30.778;2024-01-15T01:04:26;98396.31;;;-2.17;83.82
46448;BME280;32145;50.390;30.778;2024-01-15T01:07:20;98397.13;;;-2.17;82.84
46448;BME280;32145;50.390;30.778;2024-01-15T01:10:16;98396.50;;;-2.19;83.73
46448;BME280;32145;50.390;30.778;2024-01-15T01:13:11;98394.03;;;-2.21;83.47
46448;BME280;32145;50.390;30.778;2024-01-15T01:16:05;98385.03;;;-2.20;83.49
46448;BME280;32145;50.390;30.778;2024-01-15T01:18:59;98381.75;;;-2.22;83.75
46448;BME280;32145;50.390;30.778;2024-01-15T01:21:53;98372.34;;;-2.24;83.70
46448;BME280;32145;50.390;30.778;2024-01-15T01:24:50;98382.13;;;-2.25;84.15
46448;BME280;32145;50.390;30.778;2024-01-15T01:27:47;98388.63;;;-2.27;84.39
46448;BME280;32145;50.390;30.778;2024-01-15T01:30:44;98392.75;;;-2.25;84.35
46448;BME280;32145;50.390;30.778;2024-01-15T01:33:40;98393.78;;;-2.26;84.23
46448;BME280;32145;50.390;30.778;2024-01-15T01:36:36;98392.09;;;-2.27;84.45
46448;BME280;32145;50.390;30.778;2024-01-15T01:39:32;98381.47;;;-2.27;84.60
46448;BME280;32145;50.390;30.778;2024-01-15T01:42:29;98380.84;;;-2.29;84.35
46448;BME280;32145;50.390;30.778;2024-01-15T01:45:26;98386.53;;;-2.32;84.51
46448;BME280;32145;50.390;30.778;2024-01-15T01:48:23;98379.97;;;-2.36;84.42
46448;BME280;32145;50.390;30.778;2024-01-15T01:51:21;98377.50;;;-2.38;84.80
46448;BME280;32145;50.390;30.778;2024-01-15T01:54:19;98378.69;;;-2.40;84.76
46448;BME280;32145;50.390;30.778;2024-01-15T01:57:17;98382.72;;;-2.44;84.38
46448;BME280;32145;50.390;30.778;2024-01-15T02:00:13;98383.09;;;-2.48;84.38
46448;BME280;32145;50.390;30.778;2024-01-15T02:03:09;98389.41;;;-2.49;84.86
46448;BME280;32145;50.390;30.778;2024-01-15T02:06:04;98390.03;;;-2.47;84.84
46448;BME280;32145;50.390;30.778;2024-01-15T02:08:58;98390.03;;;-2.47;84.56
46448;BME280;32145;50.390;30.778;2024-01-15T02:11:53;98391.88;;;-2.47;84.12
46448;BME280;32145;50.390;30.778;2024-01-15T02:14:48;98390.44;;;-2.50;84.92
46448;BME280;32145;50.390;30.778;2024-01-15T02:17:59;98392.44;;;-2.52;84.71
46448;BME280;32145;50.390;30.778;2024-01-15T02:20:55;98388.31;;;-2.54;84.23
46448;BME280;32145;50.390;30.778;2024-01-15T02:23:51;98392.00;;;-2.55;84.35
46448;BME280;32145;50.390;30.778;2024-01-15T02:26:46;98380.91;;;-2.59;84.68
46448;BME280;32145;50.390;30.778;2024-01-15T02:29:40;98376.00;;;-2.62;84.45
46448;BME280;32145;50.390;30.778;2024-01-15T02:32:34;98383.28;;;-2.64;84.17
46448;BME280;32145;50.390;30.778;2024-01-15T02:35:30;98384.94;;;-2.63;84.25
46448;BME280;32145;50.390;30.778;2024-01-15T02:38:27;98383.28;;;-2.64;84.13
46448;BME280;32145;50.390;30.778;2024-01-15T02:41:22;98391.25;;;-2.64;84.11
46448;BME280;32145;50.390;30.778;2024-01-15T02:44:17;98396.75;;;-2.66;83.96
46448;BME280;32145;50.390;30.778;2024-01-15T02:47:11;98389.81;;;-2.67;83.35
46448;BME280;32145;50.390;30.778;2024-01-15T02:50:06;98381.47;;;-2.64;84.03
46448;BME280;32145;50.390;30.778;2024-01-15T02:53:01;98389.03;;;-2.61;83.34
46448;BME280;32145;50.390;30.778;2024-01-15T02:55:55;98388.25;;;-2.61;82.71
46448;BME280;32145;50.390;30.778;2024-01-15T02:58:52;98399.28;;;-2.57;82.59
46448;BME280;32145;50.390;30.778;2024-01-15T03:01:49;98392.34;;;-2.59;82.82
46448;BME280;32145;50.390;30.778;2024-01-15T03:04:45;98387.47;;;-2.55;83.24
46448;BME280;32145;50.390;30.778;2024-01-15T03:07:42;98393.19;;;-2.58;82.72
46448;BME280;32145;50.390;30.778;2024-01-15T03:10:38;98388.88;;;-2.59;82.45
46448;BME280;32145;50.390;30.778;2024-01-15T03:13:35;98385.22;;;-2.58;82.99
46448;BME280;32145;50.390;30.778;2024-01-15T03:16:33;98388.69;;;-2.57;82.27
46448;BME280;32145;50.390;30.778;2024-01-15T03:19:29;98382.56;;;-2.58;82.35
46448;BME280;32145;50.390;30.778;2024-01-15T03:22:25;98381.75;;;-2.59;82.28
46448;BME280;32145;50.390;30.778;2024-01-15T03:25:22;98381.75;;;-2.59;82.22
46448;BME280;32145;50.390;30.778;2024-01-15T03:28:18;98376.88;;;-2.55;82.20
46448;BME280;32145;50.390;30.778;2024-01-15T03:31:14;98376.88;;;-2.55;81.76
46448;BME280;32145;50.390;30.778;2024-01-15T03:34:12;98386.31;;;-2.52;82.45
46448;BME280;32145;50.390;30.778;2024-01-15T03:37:08;98377.34;;;-2.51;82.09
46448;BME280;32145;50.390;30.778;2024-01-15T03:40:05;98382.00;;;-2.53;81.49
46448;BME280;32145;50.390;30.778;2024-01-15T03:43:02;98380.00;;;-2.51;81.30
46448;BME280;32145;50.390;30.778;2024-01-15T03:45:59;98380.34;;;-2.54;81.23
46448;BME280;32145;50.390;30.778;2024-01-15T03:48:55;98376.06;;;-2.55;81.02
46448;BME280;32145;50.390;30.778;2024-01-15T03:51:52;98376.88;;;-2.55;81.58
46448;BME280;32145;50.390;30.778;2024-01-15T03:54:49;98376.25;;;-2.57;80.98
46448;BME280;32145;50.390;30.778;2024-01-15T03:57:45;98384.22;;;-2.57;81.20
46448;BME280;32145;50.390;30.778;2024-01-15T04:00:41;98400.13;;;-2.57;80.70
46448;BME280;32145;50.390;30.778;2024-01-15T04:03:38;98387.41;;;-2.62;81.09
46448;BME280;32145;50.390;30.778;2024-01-15T04:06:34;98391.44;;;-2.66;80.82
46448;BME280;32145;50.390;30.778;2024-01-15T04:09:32;98385.69;;;-2.69;80.08
46448;BME280;32145;50.390;30.778;2024-01-15T04:12:28;98383.13;;;-2.78;80.35
46448;BME280;32145;50.390;30.778;2024-01-15T04:15:25;98392.47;;;-2.82;80.54
46448;BME280;32145;50.390;30.778;2024-01-15T04:18:21;98384.50;;;-2.82;80.43
46448;BME280;32145;50.390;30.778;2024-01-15T04:21:17;98375.63;;;-2.89;80.16
46448;BME280;32145;50.390;30.778;2024-01-15T04:24:12;98379.94;;;-2.88;80.60
46448;BME280;32145;50.390;30.778;2024-01-15T04:27:07;98383.94;;;-2.92;80.08
46448;BME280;32145;50.390;30.778;2024-01-15T04:30:05;98398.09;;;-3.00;80.33
46448;BME280;32145;50.390;30.778;2024-01-15T04:33:01;98394.38;;;-3.06;80.55
46448;BME280;32145;50.390;30.778;2024-01-15T04:36:01;98398.50;;;-3.03;80.19
46448;BME280;32145;50.390;30.778;2024-01-15T04:38:56;98403.50;;;-3.08;80.20
46448;BME280;32145;50.390;30.778;2024-01-15T04:41:52;98410.28;;;-3.06;79.72
46448;BME280;32145;50.390;30.778;2024-01-15T04:44:49;98409.91;;;-3.03;80.08
46448;BME280;32145;50.390;30.778;2024-01-15T04:47:44;98409.38;;;-2.98;79.74
46448;BME280;32145;50.390;30.778;2024-01-15T04:50:38;98417.97;;;-2.96;80.09
46448;BME280;32145;50.390;30.778;2024-01-15T04:53:34;98419.25;;;-2.92;80.04
46448;BME280;32145;50.390;30.778;2024-01-15T04:56:28;98429.97;;;-2.85;79.70
46448;BME280;32145;50.390;30.778;2024-01-15T04:59:23;98429.13;;;-2.86;78.82
46448;BME280;32145;50.390;30.778;2024-01-15T05:02:18;98422.00;;;-2.85;78.67
46448;BME280;32145;50.390;30.778;2024-01-15T05:05:13;98416.34;;;-2.82;79.01
46448;BME280;32145;50.390;30.778;2024-01-15T05:08:07;98418.59;;;-2.79;78.90
46448;BME280;32145;50.390;30.778;2024-01-15T05:11:01;98410.28;;;-2.76;78.58
46448;BME280;32145;50.390;30.778;2024-01-15T05:13:55;98415.78;;;-2.77;78.59
46448;BME280;32145;50.390;30.778;2024-01-15T05:16:52;98415.94;;;-2.79;78.91
46448;BME280;32145;50.390;30.778;2024-01-15T05:19:49;98415.59;;;-2.76;78.77
46448;BME280;32145;50.390;30.778;2024-01-15T05:22:44;98409.47;;;-2.76;78.15
46448;BME280;32145;50.390;30.778;2024-01-15T05:25:38;98418.59;;;-2.79;78.20
46448;BME280;32145;50.390;30.778;2024-01-15T05:28:32;98413.69;;;-2.82;78.38
46448;BME280;32145;50.390;30.778;2024-01-15T05:31:27;98417.16;;;-2.81;78.47
46448;BME280;32145;50.390;30.778;2024-01-15T05:34:23;98423.91;;;-2.79;78.06
46448;BME280;32145;50.390;30.778;2024-01-15T05:37:20;98416.97;;;-2.80;78.18
46448;BME280;32145;50.390;30.778;2024-01-15T05:40:15;98419.00;;;-2.82;78.14
46448;BME280;32145;50.390;30.778;2024-01-15T05:43:09;98416.88;;;-2.87;77.53
46448;BME280;32145;50.390;30.778;2024-01-15T05:46:04;98418.88;;;-2.89;77.52
46448;BME280;32145;50.390;30.778;2024-01-15T05:48:58;98425.72;;;-2.94;77.49
46448;BME280;32145;50.390;30.778;2024-01-15T05:51:52;98426.91;;;-2.97;77.84
46448;BME280;32145;50.390;30.778;2024-01-15T05:54:48;98425.72;;;-2.94;77.64
46448;BME280;32145;50.390;30.778;2024-01-15T05:57:44;98434.78;;;-2.89;77.52
46448;BME280;32145;50.390;30.778;2024-01-15T06:00:41;98437.25;;;-2.87;78.06
46448;BME280;32145;50.390;30.778;2024-01-15T06:03:37;98444.69;;;-2.82;77.42
46448;BME280;32145;50.390;30.778;2024-01-15T06:06:33;98439.19;;;-2.81;77.68
46448;BME280;32145;50.390;30.778;2024-01-15T06:09:29;98445.97;;;-2.78;77.57
46448;BME280;32145;50.390;30.778;2024-01-15T06:12:27;98443.13;;;-2.77;77.78
46448;BME280;32145;50.390;30.778;2024-01-15T06:15:24;98444.41;;;-2.73;77.49
46448;BME280;32145;50.390;30.778;2024-01-15T06:18:20;98446.88;;;-2.71;76.76
46448;BME280;32145;50.390;30.778;2024-01-15T06:21:16;98437.09;;;-2.70;76.68
46448;BME280;32145;50.390;30.778;2024-01-15T06:24:13;98445.34;;;-2.65;76.99
46448;BME280;32145;50.390;30.778;2024-01-15T06:27:09;98443.31;;;-2.63;76.92
46448;BME280;32145;50.390;30.778;2024-01-15T06:30:07;98456.56;;;-2.63;76.81
46448;BME280;32145;50.390;30.778;2024-01-15T06:33:04;98444.22;;;-2.56;76.00
46448;BME280;32145;50.390;30.778;2024-01-15T06:36:00;98440.56;;;-2.55;76.54
46448;BME280;32145;50.390;30.778;2024-01-15T06:38:56;98450.63;;;-2.50;76.19
46448;BME280;32145;50.390;30.778;2024-01-15T06:41:52;98440.84;;;-2.50;75.46
46448;BME280;32145;50.390;30.778;2024-01-15T06:44:49;98452.09;;;-2.48;75.33
46448;BME280;32145;50.390;30.778;2024-01-15T06:47:44;98445.59;;;-2.45;75.21
46448;BME280;32145;50.390;30.778;2024-01-15T06:50:39;98431.41;;;-2.37;74.93
46448;BME280;32145;50.390;30.778;2024-01-15T06:53:33;98443.31;;;-2.33;75.00
46448;BME280;32145;50.390;30.778;2024-01-15T06:56:27;98436.97;;;-2.32;74.54
46448;BME280;32145;50.390;30.778;2024-01-15T06:59:23;98437.63;;;-2.30;74.46
46448;BME280;32145;50.390;30.778;2024-01-15T07:02:20;98445.41;;;-2.28;74.24
46448;BME280;32145;50.390;30.778;2024-01-15T07:05:15;98437.69;;;-2.23;74.69
46448;BME280;32145;50.390;30.778;2024-01-15T07:08:10;98437.34;;;-2.20;74.99
46448;BME280;32145;50.390;30.778;2024-01-15T07:11:05;98438.06;;;-2.26;76.08
46448;BME280;32145;50.390;30.778;2024-01-15T07:13:59;98434.56;;;-2.27;76.16
46448;BME280;32145;50.390;30.778;2024-01-15T07:16:54;98436.69;;;-2.22;75.95
46448;BME280;32145;50.390;30.778;2024-01-15T07:19:48;98431.94;;;-2.27;76.61
46448;BME280;32145;50.390;30.778;2024-01-15T07:22:46;98433.59;;;-2.26;76.97
46448;BME280;32145;50.390;30.778;2024-01-15T07:25:43;98417.19;;;-2.29;77.46
46448;BME280;32145;50.390;30.778;2024-01-15T07:28:39;98420.13;;;-2.24;77.69
46448;BME280;32145;50.390;30.778;2024-01-15T07:31:33;98416.47;;;-2.23;77.83
46448;BME280;32145;50.390;30.778;2024-01-15T07:34:27;98412.97;;;-2.24;78.48
46448;BME280;32145;50.390;30.778;2024-01-15T07:37:23;98413.16;;;-2.25;79.22
46448;BME280;32145;50.390;30.778;2024-01-15T07:40:21;98407.94;;;-2.18;78.99
46448;BME280;32145;50.390;30.778;2024-01-15T07:43:18;98398.31;;;-2.20;78.90
46448;BME280;32145;50.390;30.778;2024-01-15T07:46:14;98401.72;;;-2.26;79.81
46448;BME280;32145;50.390;30.778;2024-01-15T07:49:10;98408.31;;;-2.22;80.08
46448;BME280;32145;50.390;30.778;2024-01-15T07:52:05;98409.59;;;-2.17;79.88
46448;BME280;32145;50.390;30.778;2024-01-15T07:54:59;98412.13;;;-2.09;79.93
46448;BME280;32145;50.390;30.778;2024-01-15T07:57:56;98403.59;;;-2.04;79.11
46448;BME280;32145;50.390;30.778;2024-01-15T08:00:53;98398.34;;;-1.98;79.29
46448;BME280;32145;50.390;30.778;2024-01-15T08:03:49;98394.50;;;-1.95;78.46
46448;BME280;32145;50.390;30.778;2024-01-15T08:06:46;98395.59;;;-1.89;78.01
46448;BME280;32145;50.390;30.778;2024-01-15T08:09:42;98390.13;;;-1.81;78.17
46448;BME280;32145;50.390;30.778;2024-01-15T08:12:38;98405.94;;;-1.73;77.49
46448;BME280;32145;50.390;30.778;2024-01-15T08:15:36;98408.41;;;-1.71;77.21
46448;BME280;32145;50.390;30.778;2024-01-15T08:18:32;98410.13;;;-1.63;77.06
46448;BME280;32145;50.390;30.778;2024-01-15T08:21:29;98404.81;;;-1.63;76.29
46448;BME280;32145;50.390;30.778;2024-01-15T08:24:25;98402.72;;;-1.68;75.56
46448;BME280;32145;50.390;30.778;2024-01-15T08:27:22;98397.47;;;-1.61;74.93
46448;BME280;32145;50.390;30.778;2024-01-15T08:30:18;98400.13;;;-1.61;74.75
46448;BME280;32145;50.390;30.778;2024-01-15T08:33:16;98399.38;;;-1.55;74.70
46448;BME280;32145;50.390;30.778;2024-01-15T08:36:13;98408.63;;;-1.51;74.08
46448;BME280;32145;50.390;30.778;2024-01-15T08:39:09;98404.16;;;-1.44;73.85
46448;BME280;32145;50.390;30.778;2024-01-15T08:42:05;98399.09;;;-1.38;73.41
46448;BME280;32145;50.390;30.778;2024-01-15T08:45:02;98400.09;;;-1.39;73.21
46448;BME280;32145;50.390;30.778;2024-01-15T08:47:58;98401.75;;;-1.38;73.08
46448;BME280;32145;50.390;30.778;2024-01-15T08:50:56;98398.31;;;-1.32;73.15
46448;BME280;32145;50.390;30.778;2024-01-15T08:53:52;98398.31;;;-1.32;72.51
46448;BME280;32145;50.390;30.778;2024-01-15T08:56:48;98386.28;;;-1.28;72.35
46448;BME280;32145;50.390;30.778;2024-01-15T08:59:43;98386.94;;;-1.26;71.96
46448;BME280;32145;50.390;30.778;2024-01-15T09:02:37;98381.84;;;-1.21;72.11
46448;BME280;32145;50.390;30.778;2024-01-15T09:05:31;98385.53;;;-1.22;72.18
46448;BME280;32145;50.390;30.778;2024-01-15T09:08:27;98382.66;;;-1.20;71.89
46448;BME280;32145;50.390;30.778;2024-01-15T09:11:21;98374.31;;;-1.17;71.41
46448;BME280;32145;50.390;30.778;2024-01-15T09:14:15;98376.75;;;-1.15;71.51
46448;BME280;32145;50.390;30.778;2024-01-15T09:17:10;98364.28;;;-1.15;70.98
46448;BME280;32145;50.390;30.778;2024-01-15T09:20:05;98360.41;;;-1.12;71.12
46448;BME280;32145;50.390;30.778;2024-01-15T09:23:00;98361.25;;;-1.12;70.66
46448;BME280;32145;50.390;30.778;2024-01-15T09:25:57;98360.59;;;-1.14;70.09
46448;BME280;32145;50.390;30.778;2024-01-15T09:28:54;98356.34;;;-1.08;70.30
46448;BME280;32145;50.390;30.778;2024-01-15T09:31:50;98346.19;;;-0.98;70.43
46448;BME280;32145;50.390;30.778;2024-01-15T09:34:46;98339.03;;;-0.97;70.04
46448;BME280;32145;50.390;30.778;2024-01-15T09:37:42;98337.75;;;-1.01;69.40
46448;BME280;32145;50.390;30.778;2024-01-15T09:40:43;98336.56;;;-0.99;68.99
46448;BME280;32145;50.390;30.778;2024-01-15T09:43:38;98330.81;;;-0.96;68.67
46448;BME280;32145;50.390;30.778;2024-01-15T09:46:34;98332.72;;;-0.89;69.35
46448;BME280;32145;50.390;30.778;2024-01-15T09:49:29;98335.41;;;-0.83;68.83
46448;BME280;32145;50.390;30.778;2024-01-15T09:52:24;98334.19;;;-0.80;68.34
46448;BME280;32145;50.390;30.778;2024-01-15T09:55:19;98331.97;;;-0.76;68.10
46448;BME280;32145;50.390;30.778;2024-01-15T09:58:16;98324.59;;;-0.68;68.00
46448;BME280;32145;50.390;30.778;2024-01-15T10:01:14;98327.31;;;-0.61;67.77
46448;BME280;32145;50.390;30.778;2024-01-15T10:04:09;98319.94;;;-0.59;67.22
46448;BME280;32145;50.390;30.778;2024-01-15T10:07:07;98316.88;;;-0.62;66.99
46448;BME280;32145;50.390;30.778;2024-01-15T10:10:05;98314.63;;;-0.52;67.15
46448;BME280;32145;50.390;30.778;2024-01-15T10:13:01;98315.06;;;-0.48;66.98
46448;BME280;32145;50.390;30.778;2024-01-15T10:15:56;98308.91;;;-0.49;66.66
46448;BME280;32145;50.390;30.778;2024-01-15T10:18:51;98315.09;;;-0.42;66.42
46448;BME280;32145;50.390;30.778;2024-01-15T10:21:48;98319.81;;;-0.44;66.35
46448;BME280;32145;50.390;30.778;2024-01-15T10:24:45;98312.19;;;-0.54;65.63
46448;BME280;32145;50.390;30.778;2024-01-15T10:27:41;98314.63;;;-0.59;65.98
46448;BME280;32145;50.390;30.778;2024-01-15T10:30:38;98295.78;;;-0.64;65.74
46448;BME280;32145;50.390;30.778;2024-01-15T10:33:34;98297.00;;;-0.67;65.53
46448;BME280;32145;50.390;30.778;2024-01-15T10:36:32;98288.63;;;-0.63;65.80
46448;BME280;32145;50.390;30.778;2024-01-15T10:39:29;98279.34;;;-0.68;65.37
46448;BME280;32145;50.390;30.778;2024-01-15T10:42:25;98301.94;;;-0.63;65.68
46448;BME280;32145;50.390;30.778;2024-01-15T10:45:22;98292.94;;;-0.56;65.88
46448;BME280;32145;50.390;30.778;2024-01-15T10:48:19;98289.22;;;-0.61;65.27
46448;BME280;32145;50.390;30.778;2024-01-15T10:51:13;98288.63;;;-0.57;65.69
46448;BME280;32145;50.390;30.778;2024-01-15T10:54:10;98281.91;;;-0.46;65.73
46448;BME280;32145;50.390;30.778;2024-01-15T10:57:06;98270.63;;;-0.48;65.47
46448;BME280;32145;50.390;30.778;2024-01-15T11:00:01;98269.22;;;-0.44;65.58
46448;BME280;32145;50.390;30.778;2024-01-15T11:03:00;98264.28;;;-0.47;65.47
46448;BME280;32145;50.390;30.778;2024-01-15T11:05:59;98262.22;;;-0.45;65.35
46448;BME280;32145;50.390;30.778;2024-01-15T11:08:56;98253.63;;;-0.47;65.34
46448;BME280;32145;50.390;30.778;2024-01-15T11:12:07;98249.31;;;-0.48;65.09
46448;BME280;32145;50.390;30.778;2024-01-15T11:15:01;98250.56;;;-0.44;65.47
46448;BME280;32145;50.390;30.778;2024-01-15T11:18:00;98242.16;;;-0.47;65.42
46448;BME280;32145;50.390;30.778;2024-01-15T11:21:19;98230.47;;;-0.53;65.93
46448;BME280;32145;50.390;30.778;2024-01-15T11:24:33;98224.53;;;-0.55;65.79
46448;BME280;32145;50.390;30.778;2024-01-15T11:27:41;98219.22;;;-0.55;66.26
46448;BME280;32145;50.390;30.778;2024-01-15T11:30:35;98220.41;;;-0.65;66.20
46448;BME280;32145;50.390;30.778;2024-01-15T11:33:33;98213.25;;;-0.64;66.33
46448;BME280;32145;50.390;30.778;2024-01-15T11:37:00;98215.91;;;-0.64;66.36
46448;BME280;32145;50.390;30.778;2024-01-15T11:39:59;98227.41;;;-0.63;66.71
46448;BME280;32145;50.390;30.778;2024-01-15T11:42:59;98237.63;;;-0.60;66.83
46448;BME280;32145;50.390;30.778;2024-01-15T11:45:55;98223.72;;;-0.62;66.75
46448;BME280;32145;50.390;30.778;2024-01-15T11:48:58;98223.72;;;-0.62;66.78
46448;BME280;32145;50.390;30.778;2024-01-15T11:52:00;98213.06;;;-0.69;66.92
46448;BME280;32145;50.390;30.778;2024-01-15T11:55:02;98214.25;;;-0.72;66.98
46448;BME280;32145;50.390;30.778;2024-01-15T11:58:08;98222.03;;;-0.77;67.09
46448;BME280;32145;50.390;30.778;2024-01-15T12:01:03;98229.41;;;-0.79;67.42
46448;BME280;32145;50.390;30.778;2024-01-15T12:03:58;98249.84;;;-0.86;67.24
46448;BME280;32145;50.390;30.778;2024-01-15T12:06:52;98244.53;;;-0.86;67.52
46448;BME280;32145;50.390;30.778;2024-01-15T12:09:48;98240.44;;;-0.89;67.54
46448;BME280;32145;50.390;30.778;2024-01-15T12:13:04;98229.78;;;-0.89;67.67
46448;BME280;32145;50.390;30.778;2024-01-15T12:16:01;98223.00;;;-0.92;67.55
46448;BME280;32145;50.390;30.778;2024-01-15T12:18:58;98217.28;;;-0.88;67.56
46448;BME280;32145;50.390;30.778;2024-01-15T12:21:54;98213.78;;;-0.96;67.34
46448;BME280;32145;50.390;30.778;2024-01-15T12:24:51;98211.75;;;-0.94;67.67
46448;BME280;32145;50.390;30.778;2024-01-15T12:27:47;98213.56;;;-0.94;67.77
46448;BME280;32145;50.390;30.778;2024-01-15T12:30:46;98219.09;;;-0.96;67.87
46448;BME280;32145;50.390;30.778;2024-01-15T12:33:41;98226.47;;;-0.98;67.33
46448;BME280;32145;50.390;30.778;2024-01-15T12:36:37;98221.16;;;-0.98;67.69
46448;BME280;32145;50.390;30.778;2024-01-15T12:39:35;98212.97;;;-0.89;67.75
46448;BME280;32145;50.390;30.778;2024-01-15T12:42:32;98215.91;;;-0.71;67.89
46448;BME280;32145;50.390;30.778;2024-01-15T12:45:29;98205.72;;;-0.47;67.48
46448;BME280;32145;50.390;30.778;2024-01-15T12:48:27;98210.63;;;-0.30;66.97
46448;BME280;32145;50.390;30.778;2024-01-15T12:51:24;98205.53;;;-0.11;66.64
46448;BME280;32145;50.390;30.778;2024-01-15T12:54:19;98204.09;;;-0.01;65.62
46448;BME280;32145;50.390;30.778;2024-01-15T12:57:13;98211.06;;;-0.06;65.24
46448;BME280;32145;50.390;30.778;2024-01-15T13:00:08;98203.69;;;-0.18;65.29
46448;BME280;32145;50.390;30.778;2024-01-15T13:03:02;98199.78;;;-0.35;65.12
46448;BME280;32145;50.390;30.778;2024-01-15T13:05:58;98215.94;;;-0.50;65.02
46448;BME280;32145;50.390;30.778;2024-01-15T13:08:53;98225.53;;;-0.63;65.28
46448;BME280;32145;50.390;30.778;2024-01-15T13:11:47;98223.06;;;-0.78;65.13
46448;BME280;32145;50.390;30.778;2024-01-15T13:14:42;98222.84;;;-0.83;65.26
46448;BME280;32145;50.390;30.778;2024-01-15T13:17:38;98213.38;;;-0.93;65.51
46448;BME280;32145;50.390;30.778;2024-01-15T13:20:34;98212.53;;;-1.00;65.69
46448;BME280;32145;50.390;30.778;2024-01-15T13:23:32;98211.72;;;-1.07;65.91
46448;BME280;32145;50.390;30.778;2024-01-15T13:26:28;98209.19;;;-1.15;66.53
46448;BME280;32145;50.390;30.778;2024-01-15T13:29:24;98206.31;;;-1.21;66.53
46448;BME280;32145;50.390;30.778;2024-01-15T13:32:23;98209.56;;;-1.25;66.36
46448;BME280;32145;50.390;30.778;2024-01-15T13:35:18;98212.59;;;-1.35;66.60
46448;BME280;32145;50.390;30.778;2024-01-15T13:38:14;98206.81;;;-1.46;66.59
46448;BME280;32145;50.390;30.778;2024-01-15T13:41:12;98210.66;;;-1.55;66.40
46448;BME280;32145;50.390;30.778;2024-01-15T13:44:08;98206.09;;;-1.68;67.05
46448;BME280;32145;50.390;30.778;2024-01-15T13:47:05;98201.50;;;-1.81;66.73
46448;BME280;32145;50.390;30.778;2024-01-15T13:49:59;98208.38;;;-1.93;67.88
46448;BME280;32145;50.390;30.778;2024-01-15T13:52:53;98196.88;;;-2.01;67.66
46448;BME280;32145;50.390;30.778;2024-01-15T13:55:47;98199.31;;;-2.06;68.00
46448;BME280;32145;50.390;30.778;2024-01-15T13:58:43;98193.13;;;-2.13;67.87
46448;BME280;32145;50.390;30.778;2024-01-15T14:01:37;98190.59;;;-2.22;67.57
46448;BME280;32145;50.390;30.778;2024-01-15T14:04:31;98195.03;;;-2.29;68.14
46448;BME280;32145;50.390;30.778;2024-01-15T14:07:26;98201.50;;;-2.38;68.06
46448;BME280;32145;50.390;30.778;2024-01-15T14:10:20;98191.88;;;-2.39;68.65
46448;BME280;32145;50.390;30.778;2024-01-15T14:13:15;98193.63;;;-2.47;68.26
46448;BME280;32145;50.390;30.778;2024-01-15T14:16:11;98187.47;;;-2.54;68.66
46448;BME280;32145;50.390;30.778;2024-01-15T14:19:01;98193.78;;;-2.55;69.06
46448;BME280;32145;50.390;30.778;2024-01-15T14:21:55;98189.84;;;-2.59;68.95
46448;BME280;32145;50.390;30.778;2024-01-15T14:24:49;98201.25;;;-2.65;69.30
46448;BME280;32145;50.390;30.778;2024-01-15T14:27:44;98202.63;;;-2.69;69.00
46448;BME280;32145;50.390;30.778;2024-01-15T14:30:38;98200.72;;;-2.76;69.12
46448;BME280;32145;50.390;30.778;2024-01-15T14:33:33;98199.09;;;-2.77;69.33
46448;BME280;32145;50.390;30.778;2024-01-15T14:36:30;98193.22;;;-2.72;69.87
46448;BME280;32145;50.390;30.778;2024-01-15T14:39:26;98202.16;;;-2.73;69.76
46448;BME280;32145;50.390;30.778;2024-01-15T14:42:23;98201.75;;;-2.77;69.89
46448;BME280;32145;50.390;30.778;2024-01-15T14:45:19;98204.75;;;-2.80;69.85
46448;BME280;32145;50.390;30.778;2024-01-15T14:48:15;98207.66;;;-2.75;70.50
46448;BME280;32145;50.390;30.778;2024-01-15T14:51:13;98213.88;;;-2.67;69.88
46448;BME280;32145;50.390;30.778;2024-01-15T14:54:09;98216.38;;;-2.59;70.77
46448;BME280;32145;50.390;30.778;2024-01-15T14:57:06;98211.22;;;-2.46;70.15
46448;BME280;32145;50.390;30.778;2024-01-15T15:00:03;98204.34;;;-2.40;69.92
46448;BME280;32145;50.390;30.778;2024-01-15T15:03:00;98205.22;;;-2.33;70.09
46448;BME280;32145;50.390;30.778;2024-01-15T15:05:56;98203.59;;;-2.27;69.71
46448;BME280;32145;50.390;30.778;2024-01-15T15:08:53;98192.81;;;-2.25;70.30
46448;BME280;32145;50.390;30.778;2024-01-15T15:11:50;98195.53;;;-2.18;70.10
46448;BME280;32145;50.390;30.778;2024-01-15T15:14:46;98186.56;;;-2.17;69.77
46448;BME280;32145;50.390;30.778;2024-01-15T15:17:42;98181.84;;;-2.15;69.32
46448;BME280;32145;50.390;30.778;2024-01-15T15:20:39;98178.19;;;-2.14;69.61